createdAt,value
2022-07-29T00:00:31.124Z,0.80
2022-07-29T00:02:59.043Z,1.02
2022-07-29T00:05:27.830Z,1.00
2022-07-29T00:07:57.865Z,1.08
2022-07-29T00:10:27.327Z,0.77
2022-07-29T00:12:56.536Z,1.30
2022-07-29T00:15:24.208Z,1.23
2022-07-29T00:17:51.398Z,1.05
2022-07-29T00:20:19.819Z,1.10
2022-07-29T00:22:47.167Z,1.27
2022-07-29T00:25:14.326Z,1.48
2022-07-29T00:27:43.978Z,1.35
2022-07-29T00:30:12.698Z,1.70
2022-07-29T00:32:40.302Z,1.33
2022-07-29T00:35:29.153Z,1.50
2022-07-29T00:37:56.765Z,1.20
2022-07-29T00:40:25.855Z,1.23
2022-07-29T00:42:54.269Z,1.65
2022-07-29T00:45:23.080Z,1.20
2022-07-29T00:47:53.497Z,1.30
2022-07-29T00:50:20.142Z,1.30
2022-07-29T00:52:48.454Z,1.23
2022-07-29T00:55:17.925Z,1.40
2022-07-29T00:57:45.577Z,1.30
2022-07-29T01:00:15.741Z,1.20
2022-07-29T01:02:47.021Z,1.35
2022-07-29T01:05:17.751Z,1.92
2022-07-29T01:07:47.386Z,1.23
2022-07-29T01:10:15.987Z,1.38
2022-07-29T01:12:44.675Z,1.33
2022-07-29T01:15:12.017Z,1.13
2022-07-29T01:17:53.678Z,1.38
2022-07-29T01:20:34.235Z,1.33
2022-07-29T01:23:38.336Z,1.27
2022-07-29T01:26:40.050Z,1.13
2022-07-29T01:29:38.886Z,1.20
2022-07-29T01:32:22.551Z,1.50
2022-07-29T01:35:23.333Z,1.70
2022-07-29T01:37:59.993Z,1.60
2022-07-29T01:40:41.954Z,1.60
2022-07-29T01:43:16.598Z,1.40
2022-07-29T01:45:49.194Z,1.48
2022-07-29T01:48:19.588Z,1.40
2022-07-29T01:51:21.591Z,1.52
2022-07-29T01:53:59.496Z,1.52
2022-07-29T01:56:30.926Z,1.50
2022-07-29T01:58:58.372Z,1.60
2022-07-29T02:01:26.334Z,1.35
2022-07-29T02:03:56.320Z,1.70
2022-07-29T02:06:24.604Z,1.58
2022-07-29T02:08:52.557Z,1.27
2022-07-29T02:11:19.955Z,1.38
2022-07-29T02:13:49.994Z,1.55
2022-07-29T02:16:20.111Z,1.30
2022-07-29T02:18:51.556Z,1.40
2022-07-29T02:21:24.174Z,1.60
2022-07-29T02:23:54.123Z,1.40
2022-07-29T02:26:24.275Z,1.15
2022-07-29T02:28:53.505Z,1.30
2022-07-29T02:31:26.736Z,1.73
2022-07-29T02:33:57.210Z,1.33
2022-07-29T02:36:28.222Z,1.65
2022-07-29T02:38:58.765Z,1.58
2022-07-29T02:41:36.744Z,1.63
2022-07-29T02:44:16.000Z,1.50
2022-07-29T02:47:02.751Z,1.20
2022-07-29T02:49:35.491Z,1.23
2022-07-29T02:52:14.322Z,1.55
2022-07-29T02:54:58.012Z,1.33
2022-07-29T02:57:35.208Z,1.50
2022-07-29T03:00:06.821Z,1.67
2022-07-29T03:02:41.411Z,1.40
2022-07-29T03:05:10.719Z,1.60
2022-07-29T03:07:38.099Z,1.73
2022-07-29T03:10:10.946Z,1.30
2022-07-29T03:12:41.370Z,1.33
2022-07-29T03:15:09.324Z,1.40
2022-07-29T03:17:38.055Z,1.58
2022-07-29T03:20:05.563Z,1.67
2022-07-29T03:22:33.752Z,1.40
2022-07-29T03:25:09.080Z,1.15
2022-07-29T03:27:37.331Z,1.33
2022-07-29T03:30:06.067Z,1.38
2022-07-29T03:32:36.979Z,1.38
2022-07-29T03:35:07.582Z,1.30
2022-07-29T03:37:34.581Z,1.23
2022-07-29T03:40:04.617Z,1.70
2022-07-29T03:42:34.485Z,1.27
2022-07-29T03:45:04.712Z,1.45
2022-07-29T03:47:50.175Z,1.50
2022-07-29T03:50:20.252Z,1.30
2022-07-29T03:52:49.575Z,1.60
2022-07-29T03:55:17.013Z,1.40
2022-07-29T03:57:46.114Z,1.42
2022-07-29T04:00:16.394Z,2.03
2022-07-29T04:02:50.401Z,2.15
2022-07-29T04:05:18.521Z,1.95
2022-07-29T04:07:47.529Z,1.73
2022-07-29T04:10:16.467Z,1.40
2022-07-29T04:12:44.706Z,1.50
2022-07-29T04:15:12.811Z,1.20
2022-07-29T04:17:39.583Z,1.40
2022-07-29T04:20:07.079Z,1.40
2022-07-29T04:22:35.296Z,1.40
2022-07-29T04:25:04.142Z,1.75
2022-07-29T04:27:33.051Z,1.20
2022-07-29T04:30:02.386Z,1.40
2022-07-29T04:32:30.984Z,1.27
2022-07-29T04:34:59.575Z,1.48
2022-07-29T04:37:29.166Z,1.20
2022-07-29T04:39:56.130Z,1.20
2022-07-29T04:42:29.261Z,1.40
2022-07-29T04:44:59.339Z,1.20
2022-07-29T04:47:31.566Z,1.08
2022-07-29T04:49:59.584Z,1.25
2022-07-29T04:52:27.644Z,1.40
2022-07-29T04:54:55.355Z,1.70
2022-07-29T04:57:24.661Z,1.30
2022-07-29T04:59:54.628Z,1.20
2022-07-29T05:02:24.106Z,1.25
2022-07-29T05:04:54.086Z,1.27
2022-07-29T05:07:21.081Z,1.20
2022-07-29T05:09:49.633Z,1.25
2022-07-29T05:12:16.812Z,1.02
2022-07-29T05:14:44.779Z,1.50
2022-07-29T05:17:13.136Z,1.20
2022-07-29T05:19:40.675Z,1.73
2022-07-29T05:22:09.238Z,1.38
2022-07-29T05:24:37.322Z,1.30
2022-07-29T05:27:05.605Z,1.20
2022-07-29T05:29:45.042Z,1.08
2022-07-29T05:32:13.574Z,1.17
2022-07-29T05:34:51.291Z,1.30
2022-07-29T05:37:21.662Z,1.33
2022-07-29T05:39:50.379Z,1.20
2022-07-29T05:42:25.348Z,1.73
2022-07-29T05:44:53.476Z,2.08
2022-07-29T05:47:22.295Z,1.42
2022-07-29T05:49:49.764Z,1.92
2022-07-29T05:52:17.520Z,1.92
2022-07-29T05:54:45.603Z,2.60
2022-07-29T05:57:20.995Z,1.55
2022-07-29T05:59:48.361Z,1.17
2022-07-29T06:02:16.480Z,1.80
2022-07-29T06:04:46.138Z,1.90
2022-07-29T06:07:14.256Z,1.60
2022-07-29T06:09:42.247Z,1.67
2022-07-29T06:12:10.396Z,1.65
2022-07-29T06:14:39.452Z,1.40
2022-07-29T06:17:07.959Z,1.50
2022-07-29T06:19:37.408Z,1.33
2022-07-29T06:22:06.180Z,1.38
2022-07-29T06:24:33.792Z,1.33
2022-07-29T06:27:06.073Z,1.20
2022-07-29T06:29:33.710Z,1.50
2022-07-29T06:32:01.510Z,0.80
2022-07-29T06:34:32.237Z,1.00
2022-07-29T06:37:03.733Z,1.10
2022-07-29T06:39:31.327Z,1.20
2022-07-29T06:42:00.734Z,0.98
2022-07-29T06:44:31.980Z,1.20
2022-07-29T06:47:01.252Z,0.95
2022-07-29T06:49:29.536Z,1.00
2022-07-29T06:51:59.627Z,0.82
2022-07-29T06:54:27.176Z,1.20
2022-07-29T06:56:56.564Z,1.35
2022-07-29T06:59:32.199Z,1.10
2022-07-29T07:02:04.600Z,0.55
2022-07-29T07:04:33.415Z,0.80
2022-07-29T07:07:00.641Z,0.65
2022-07-29T07:09:39.956Z,0.68
2022-07-29T07:12:07.628Z,0.50
2022-07-29T07:14:35.505Z,0.50
2022-07-29T07:17:04.882Z,0.70
2022-07-29T07:19:32.587Z,0.60
2022-07-29T07:22:00.554Z,0.43
2022-07-29T07:24:28.749Z,0.55
2022-07-29T07:26:56.488Z,0.50
2022-07-29T07:29:23.369Z,0.70
2022-07-29T07:31:50.263Z,0.70
2022-07-29T07:34:17.630Z,3.13
2022-07-29T07:36:57.072Z,0.50
2022-07-29T07:39:26.976Z,0.43
2022-07-29T07:41:54.435Z,0.30
2022-07-29T07:44:22.854Z,0.30
2022-07-29T07:46:50.338Z,0.32
2022-07-29T07:49:17.258Z,0.40
2022-07-29T07:51:50.657Z,0.38
2022-07-29T07:54:20.819Z,0.52
2022-07-29T07:56:49.977Z,0.80
2022-07-29T07:59:20.077Z,0.40
2022-07-29T08:01:55.517Z,0.60
2022-07-29T08:04:28.711Z,0.50
2022-07-29T08:06:58.362Z,0.40
2022-07-29T08:09:29.679Z,0.45
2022-07-29T08:12:00.295Z,0.40
2022-07-29T08:14:29.476Z,0.47
2022-07-29T08:16:57.645Z,0.40
2022-07-29T08:19:25.208Z,0.38
2022-07-29T08:21:54.803Z,0.40
2022-07-29T08:24:47.053Z,0.55
2022-07-29T08:27:41.122Z,0.43
2022-07-29T08:30:09.228Z,0.30
2022-07-29T08:32:55.506Z,0.30
2022-07-29T08:35:25.978Z,0.43
2022-07-29T08:37:54.867Z,0.40
2022-07-29T08:40:30.498Z,0.50
2022-07-29T08:43:08.496Z,0.32
2022-07-29T08:45:51.163Z,0.75
2022-07-29T08:48:24.870Z,0.50
2022-07-29T08:50:56.919Z,0.60
2022-07-29T08:53:30.176Z,0.85
2022-07-29T08:55:58.964Z,0.40
2022-07-29T08:58:27.826Z,0.55
2022-07-29T09:00:56.634Z,0.40
2022-07-29T09:03:31.485Z,0.50
2022-07-29T09:06:03.751Z,0.57
2022-07-29T09:08:33.624Z,0.40
2022-07-29T09:11:02.418Z,0.60
2022-07-29T09:13:30.925Z,0.63
2022-07-29T09:15:57.848Z,0.65
2022-07-29T09:18:36.685Z,1.25
2022-07-29T09:21:23.487Z,0.80
2022-07-29T09:24:13.436Z,0.70
2022-07-29T09:26:44.235Z,0.70
2022-07-29T09:29:19.578Z,0.40
2022-07-29T09:31:48.402Z,0.80
2022-07-29T09:34:18.402Z,0.80
2022-07-29T09:36:50.278Z,1.00
2022-07-29T09:39:35.206Z,0.90
2022-07-29T09:42:04.924Z,0.80
2022-07-29T09:44:49.775Z,1.00
2022-07-29T09:47:19.177Z,0.80
2022-07-29T09:50:00.899Z,0.77
2022-07-29T09:52:29.137Z,0.98
2022-07-29T09:55:09.123Z,0.95
2022-07-29T09:57:38.006Z,0.80
2022-07-29T10:00:09.603Z,0.70
2022-07-29T10:02:47.561Z,0.90
2022-07-29T10:05:25.902Z,1.05
2022-07-29T10:07:58.469Z,0.82
2022-07-29T10:10:30.319Z,0.73
2022-07-29T10:13:07.196Z,1.10
2022-07-29T10:15:39.518Z,1.10
2022-07-29T10:18:07.173Z,1.00
2022-07-29T10:20:37.161Z,1.00
2022-07-29T10:23:05.019Z,0.90
2022-07-29T10:25:32.559Z,1.00
2022-07-29T10:28:01.393Z,1.20
2022-07-29T10:30:29.553Z,1.20
2022-07-29T10:33:18.061Z,1.30
2022-07-29T10:36:13.125Z,1.40
2022-07-29T10:39:00.456Z,1.50
2022-07-29T10:42:01.030Z,1.25
2022-07-29T10:44:31.268Z,1.00
2022-07-29T10:47:01.714Z,1.25
2022-07-29T10:49:31.253Z,1.73
2022-07-29T10:52:10.358Z,1.05
2022-07-29T10:54:48.773Z,1.05
2022-07-29T10:57:53.412Z,1.20
2022-07-29T11:00:28.717Z,1.40
2022-07-29T11:02:59.517Z,1.13
2022-07-29T11:05:39.933Z,1.08
2022-07-29T11:08:20.297Z,1.30
2022-07-29T11:10:49.833Z,1.23
2022-07-29T11:13:54.382Z,0.93
2022-07-29T11:16:25.041Z,1.40
2022-07-29T11:19:13.390Z,0.90
2022-07-29T11:21:55.003Z,1.20
2022-07-29T11:24:30.128Z,1.25
2022-07-29T11:27:10.228Z,1.00
2022-07-29T11:29:41.449Z,1.20
2022-07-29T11:35:38.432Z,1.30
2022-07-29T11:38:23.198Z,0.88
2022-07-29T11:41:18.541Z,1.00
2022-07-29T11:44:05.190Z,0.80
2022-07-29T11:46:50.014Z,1.15
2022-07-29T11:49:22.283Z,1.10
2022-07-29T11:52:05.589Z,0.90
2022-07-29T11:54:57.525Z,0.80
2022-07-29T11:57:36.698Z,0.98
2022-07-29T12:00:10.050Z,0.90
2022-07-29T12:05:36.915Z,0.63
2022-07-29T12:08:17.126Z,0.70
2022-07-29T12:10:44.990Z,0.60
2022-07-29T12:13:13.360Z,0.60
2022-07-29T12:15:47.248Z,0.60
2022-07-29T12:18:18.515Z,0.93
2022-07-29T12:20:50.275Z,0.82
2022-07-29T12:23:22.599Z,0.80
2022-07-29T12:25:51.102Z,0.90
2022-07-29T12:28:26.935Z,0.80
2022-07-29T12:30:55.508Z,0.80
2022-07-29T12:33:30.553Z,0.95
2022-07-29T12:36:06.693Z,0.80
2022-07-29T12:38:37.452Z,0.77
2022-07-29T12:41:08.286Z,0.80
2022-07-29T12:43:36.619Z,0.80
2022-07-29T12:46:14.301Z,0.60
2022-07-29T12:48:44.053Z,0.85
2022-07-29T12:51:17.815Z,0.65
2022-07-29T12:54:05.159Z,0.60
2022-07-29T12:56:43.671Z,0.80
2022-07-29T12:59:17.297Z,0.70
2022-07-29T13:01:52.159Z,0.63
2022-07-29T13:04:27.496Z,0.70
2022-07-29T13:07:04.787Z,0.70
2022-07-29T13:09:43.855Z,0.70
2022-07-29T13:12:13.719Z,1.02
2022-07-29T13:14:41.729Z,0.95
2022-07-29T13:17:24.657Z,0.70
2022-07-29T13:19:54.251Z,0.90
2022-07-29T13:22:23.249Z,1.10
2022-07-29T13:24:55.678Z,1.15
2022-07-29T13:27:24.970Z,0.70
2022-07-29T13:29:54.144Z,1.17
2022-07-29T13:32:28.527Z,1.05
2022-07-29T13:34:58.127Z,1.00
2022-07-29T13:37:27.454Z,0.90
2022-07-29T13:39:55.252Z,1.23
2022-07-29T13:42:21.970Z,1.10
2022-07-29T13:44:52.581Z,0.60
2022-07-29T13:47:20.340Z,0.98
2022-07-29T13:49:47.341Z,0.90
2022-07-29T13:52:14.183Z,0.82
2022-07-29T13:54:42.685Z,0.80
2022-07-29T13:57:13.662Z,0.90
2022-07-29T13:59:43.006Z,1.02
2022-07-29T14:02:10.970Z,0.90
2022-07-29T14:04:39.565Z,1.23
2022-07-29T14:07:08.275Z,1.00
2022-07-29T14:09:41.313Z,0.98
2022-07-29T14:12:10.727Z,0.93
2022-07-29T14:14:37.777Z,1.20
2022-07-29T14:17:07.419Z,1.10
2022-07-29T14:19:39.863Z,1.00
2022-07-29T14:22:09.418Z,1.00
2022-07-29T14:24:41.763Z,1.27
2022-07-29T14:27:10.275Z,0.90
2022-07-29T14:29:38.883Z,0.98
2022-07-29T14:32:11.411Z,1.00
2022-07-29T14:34:40.592Z,1.10
2022-07-29T14:37:09.534Z,1.00
2022-07-29T14:39:44.638Z,0.93
2022-07-29T14:42:12.535Z,1.58
2022-07-29T14:44:42.263Z,1.23
2022-07-29T14:47:10.378Z,0.88
2022-07-29T14:49:40.115Z,1.02
2022-07-29T14:52:08.779Z,1.02
2022-07-29T14:54:37.666Z,0.90
2022-07-29T14:57:05.499Z,1.00
2022-07-29T14:59:32.982Z,0.80
2022-07-29T15:02:03.959Z,1.13
2022-07-29T15:04:35.719Z,1.10
2022-07-29T15:07:05.434Z,1.00
2022-07-29T15:09:33.508Z,0.90
2022-07-29T15:12:09.006Z,1.10
2022-07-29T15:14:36.980Z,1.00
2022-07-29T15:17:04.538Z,1.10
2022-07-29T15:19:33.900Z,0.75
2022-07-29T15:22:01.505Z,0.70
2022-07-29T15:24:29.900Z,0.68
2022-07-29T15:26:58.297Z,1.15
2022-07-29T15:29:25.154Z,0.93
2022-07-29T15:31:51.849Z,0.90
2022-07-29T15:34:18.656Z,1.00
2022-07-29T15:36:53.999Z,0.98
2022-07-29T15:39:21.782Z,0.88
2022-07-29T15:41:48.710Z,0.88
2022-07-29T15:44:16.704Z,0.90
2022-07-29T15:47:03.496Z,0.90
2022-07-29T15:49:47.971Z,0.95
2022-07-29T15:52:18.781Z,0.90
2022-07-29T15:54:47.093Z,0.80
2022-07-29T15:57:15.556Z,0.88
2022-07-29T15:59:44.109Z,1.02
2022-07-29T16:02:11.968Z,0.85
2022-07-29T16:04:40.406Z,1.00
2022-07-29T16:07:09.217Z,0.80
2022-07-29T16:09:37.183Z,0.88
2022-07-29T16:12:14.733Z,0.85
2022-07-29T16:14:49.291Z,0.77
2022-07-29T16:17:17.784Z,0.80
2022-07-29T16:19:47.084Z,0.77
2022-07-29T16:22:17.514Z,1.00
2022-07-29T16:24:45.284Z,1.10
2022-07-29T16:27:12.443Z,0.88
2022-07-29T16:29:40.087Z,0.93
2022-07-29T16:32:07.649Z,0.98
2022-07-29T16:34:37.367Z,0.90
2022-07-29T16:37:06.563Z,0.90
2022-07-29T16:39:36.205Z,1.08
2022-07-29T16:42:05.562Z,1.10
2022-07-29T16:44:36.063Z,1.10
2022-07-29T16:47:03.952Z,1.00
2022-07-29T16:49:32.312Z,1.08
2022-07-29T16:52:00.249Z,1.05
2022-07-29T16:54:27.962Z,0.75
2022-07-29T16:56:57.195Z,0.60
2022-07-29T16:59:26.315Z,0.90
2022-07-29T17:01:54.048Z,0.80
2022-07-29T17:04:23.912Z,0.82
2022-07-29T17:06:51.968Z,0.88
2022-07-29T17:09:21.000Z,0.90
2022-07-29T17:11:55.913Z,0.95
2022-07-29T17:14:26.144Z,0.90
2022-07-29T17:17:01.018Z,0.95
2022-07-29T17:19:32.404Z,1.20
2022-07-29T17:22:10.117Z,1.13
2022-07-29T17:24:41.088Z,0.80
2022-07-29T17:27:09.384Z,0.80
2022-07-29T17:29:36.430Z,0.80
2022-07-29T17:32:03.808Z,1.10
2022-07-29T17:34:32.721Z,0.77
2022-07-29T17:37:00.656Z,0.80
2022-07-29T17:39:27.928Z,0.90
2022-07-29T17:41:55.495Z,1.10
2022-07-29T17:44:22.294Z,0.95
2022-07-29T17:46:50.435Z,1.35
2022-07-29T17:49:18.555Z,1.10
2022-07-29T17:51:46.523Z,1.10
2022-07-29T17:54:13.692Z,1.10
2022-07-29T17:56:40.400Z,1.20
2022-07-29T17:59:10.056Z,1.00
2022-07-29T18:01:40.779Z,0.90
2022-07-29T18:04:09.487Z,0.80
2022-07-29T18:06:38.914Z,0.77
2022-07-29T18:09:07.428Z,0.55
2022-07-29T18:11:37.371Z,0.60
2022-07-29T18:14:09.062Z,0.40
2022-07-29T18:16:38.563Z,0.50
2022-07-29T18:19:05.452Z,0.60
2022-07-29T18:21:43.687Z,0.50
2022-07-29T18:26:47.438Z,0.65
2022-07-29T18:29:16.604Z,0.40
2022-07-29T18:31:44.937Z,0.32
2022-07-29T18:34:13.949Z,0.45
2022-07-29T18:36:41.182Z,0.30
2022-07-29T18:39:09.477Z,0.38
2022-07-29T18:41:50.005Z,0.30
2022-07-29T18:44:22.096Z,0.40
2022-07-29T18:46:52.439Z,0.20
2022-07-29T18:49:20.446Z,0.30
2022-07-29T18:51:49.345Z,0.20
2022-07-29T18:54:21.343Z,0.20
2022-07-29T18:56:52.042Z,0.20
2022-07-29T18:59:22.008Z,0.20
2022-07-29T19:01:53.870Z,0.10
2022-07-29T19:04:25.509Z,0.28
2022-07-29T19:06:53.204Z,0.30
2022-07-29T19:09:20.766Z,0.20
2022-07-29T19:11:52.995Z,0.20
2022-07-29T19:14:25.193Z,0.20
2022-07-29T19:16:51.780Z,0.28
2022-07-29T19:19:18.680Z,0.25
2022-07-29T19:21:47.007Z,0.20
2022-07-29T19:24:15.746Z,0.43
2022-07-29T19:26:49.575Z,0.38
2022-07-29T19:29:16.818Z,0.40
2022-07-29T19:31:43.854Z,0.60
2022-07-29T19:34:12.167Z,0.40
2022-07-29T19:36:40.884Z,0.40
2022-07-29T19:39:07.758Z,0.40
2022-07-29T19:41:35.430Z,0.40
2022-07-29T19:44:02.313Z,0.73
2022-07-29T19:46:29.172Z,0.50
2022-07-29T19:48:58.058Z,0.60
2022-07-29T19:51:26.950Z,0.60
2022-07-29T19:53:53.949Z,0.70
2022-07-29T19:56:25.263Z,0.60
2022-07-29T19:58:56.109Z,0.70
2022-07-29T20:01:34.606Z,0.82
2022-07-29T20:04:04.700Z,0.82
2022-07-29T20:06:32.424Z,1.00
2022-07-29T20:09:00.284Z,1.23
2022-07-29T20:11:29.573Z,0.90
2022-07-29T20:13:57.283Z,0.98
2022-07-29T20:16:25.447Z,1.00
2022-07-29T20:18:52.203Z,1.10
2022-07-29T20:21:21.130Z,0.98
2022-07-29T20:23:50.580Z,1.10
2022-07-29T20:26:18.340Z,1.25
2022-07-29T20:28:49.695Z,1.00
2022-07-29T20:31:17.303Z,1.23
2022-07-29T20:33:45.811Z,1.10
2022-07-29T20:36:14.805Z,1.20
2022-07-29T20:38:45.370Z,1.30
2022-07-29T20:41:14.235Z,1.20
2022-07-29T20:43:41.686Z,1.30
2022-07-29T20:46:11.382Z,1.20
2022-07-29T20:48:40.792Z,1.60
2022-07-29T20:51:11.329Z,1.55
2022-07-29T20:53:43.083Z,1.52
2022-07-29T20:56:12.350Z,1.60
2022-07-29T20:58:40.882Z,1.40
2022-07-29T21:04:04.611Z,1.60
2022-07-29T21:06:34.676Z,1.58
2022-07-29T21:09:06.541Z,1.50
2022-07-29T21:11:43.385Z,1.83
2022-07-29T21:14:33.368Z,1.60
2022-07-29T21:17:01.686Z,1.70
2022-07-29T21:19:28.696Z,1.75
2022-07-29T21:21:55.384Z,1.52
2022-07-29T21:24:22.718Z,1.50
2022-07-29T21:27:11.074Z,1.90
2022-07-29T21:29:36.757Z,1.75
2022-07-29T21:32:03.670Z,1.75
2022-07-29T21:34:31.082Z,1.70
2022-07-29T21:36:58.466Z,1.63
2022-07-29T21:39:25.218Z,1.70
2022-07-29T21:41:51.838Z,1.42
2022-07-29T21:44:20.987Z,1.63
2022-07-29T21:46:49.002Z,1.52
2022-07-29T21:49:16.837Z,1.83
2022-07-29T21:51:43.778Z,1.65
2022-07-29T21:54:10.430Z,1.60
2022-07-29T21:56:37.958Z,1.75
2022-07-29T21:59:10.427Z,2.03
2022-07-29T22:01:40.046Z,2.13
2022-07-29T22:04:10.395Z,1.88
2022-07-29T22:06:39.447Z,1.98
2022-07-29T22:09:07.964Z,1.85
2022-07-29T22:11:36.878Z,1.88
2022-07-29T22:14:05.620Z,2.20
2022-07-29T22:16:33.485Z,1.70
2022-07-29T22:19:03.731Z,2.28
2022-07-29T22:21:33.050Z,1.85
2022-07-29T22:24:04.379Z,2.45
2022-07-29T22:26:32.190Z,2.00
2022-07-29T22:29:02.047Z,1.60
2022-07-29T22:31:29.046Z,2.00
2022-07-29T22:33:59.146Z,2.17
2022-07-29T22:36:27.108Z,2.30
2022-07-29T22:38:54.967Z,2.03
2022-07-29T22:41:24.804Z,1.95
2022-07-29T22:43:53.843Z,2.42
2022-07-29T22:46:21.796Z,2.10
2022-07-29T22:48:49.907Z,2.00
2022-07-29T22:51:17.558Z,2.40
2022-07-29T22:53:47.092Z,1.83
2022-07-29T22:56:14.370Z,2.03
2022-07-29T22:58:42.641Z,2.42
2022-07-29T23:01:11.084Z,2.13
2022-07-29T23:03:39.346Z,1.88
2022-07-29T23:06:10.085Z,2.00
2022-07-29T23:08:37.371Z,2.40
2022-07-29T23:11:04.897Z,2.33
2022-07-29T23:13:32.591Z,2.30
2022-07-29T23:15:59.309Z,2.35
2022-07-29T23:18:26.011Z,2.28
2022-07-29T23:20:53.500Z,2.10
2022-07-29T23:23:20.300Z,2.33
2022-07-29T23:25:46.977Z,2.40
2022-07-29T23:28:14.310Z,2.35
2022-07-29T23:30:41.604Z,2.15
2022-07-29T23:33:08.358Z,2.05
2022-07-29T23:35:35.661Z,2.42
2022-07-29T23:38:02.996Z,2.10
2022-07-29T23:40:29.772Z,2.10
2022-07-29T23:42:56.566Z,2.13
2022-07-29T23:45:23.487Z,1.95
2022-07-29T23:48:09.674Z,2.08
2022-07-29T23:50:36.658Z,2.28
2022-07-29T23:53:04.431Z,2.28
2022-07-29T23:55:37.497Z,2.60
2022-07-29T23:58:06.229Z,2.20
